createdAt,value
2022-09-07T00:00:32.274Z,99655.61
2022-09-07T00:01:11.141Z,99652.55
2022-09-07T00:01:44.337Z,99653.11
2022-09-07T00:02:17.688Z,99653.43
2022-09-07T00:02:51.107Z,99653.81
2022-09-07T00:03:24.790Z,99654.45
2022-09-07T00:03:58.466Z,99652.51
2022-09-07T00:04:32.153Z,99652.23
2022-09-07T00:05:06.387Z,99652.92
2022-09-07T00:05:47.501Z,99656.52
2022-09-07T00:06:20.750Z,99655.70
2022-09-07T00:06:53.960Z,99652.71
2022-09-07T00:07:27.188Z,99656.12
2022-09-07T00:08:00.769Z,99653.89
2022-09-07T00:08:34.185Z,99657.99
2022-09-07T00:09:07.618Z,99658.38
2022-09-07T00:09:41.577Z,99656.02
2022-09-07T00:10:14.880Z,99657.73
2022-09-07T00:11:00.192Z,99653.80
2022-09-07T00:11:33.432Z,99657.88
2022-09-07T00:12:06.653Z,99661.58
2022-09-07T00:12:40.152Z,99657.77
2022-09-07T00:13:13.326Z,99660.04
2022-09-07T00:13:49.311Z,99655.13
2022-09-07T00:14:22.527Z,99657.05
2022-09-07T00:14:55.865Z,99655.98
2022-09-07T00:15:29.021Z,99655.90
2022-09-07T00:16:29.979Z,99655.77
2022-09-07T00:17:03.405Z,99655.73
2022-09-07T00:17:37.061Z,99655.55
2022-09-07T00:18:10.337Z,99655.68
2022-09-07T00:18:46.211Z,99655.52
2022-09-07T00:19:20.113Z,99654.83
2022-09-07T00:19:53.353Z,99650.45
2022-09-07T00:20:26.598Z,99653.89
2022-09-07T00:21:05.739Z,99655.60
2022-09-07T00:21:39.186Z,99656.19
2022-09-07T00:22:12.638Z,99652.68
2022-09-07T00:22:46.612Z,99655.20
2022-09-07T00:23:19.913Z,99653.14
2022-09-07T00:23:54.479Z,99653.59
2022-09-07T00:24:27.911Z,99652.90
2022-09-07T00:25:01.046Z,99647.73
2022-09-07T00:25:40.205Z,99650.98
2022-09-07T00:26:16.643Z,99647.25
2022-09-07T00:26:49.992Z,99647.64
2022-09-07T00:27:23.845Z,99648.74
2022-09-07T00:27:57.083Z,99645.52
2022-09-07T00:28:31.531Z,99646.28
2022-09-07T00:29:05.111Z,99642.77
2022-09-07T00:29:38.502Z,99644.77
2022-09-07T00:30:11.967Z,99640.29
2022-09-07T00:30:45.293Z,99637.23
2022-09-07T00:31:21.405Z,99640.46
2022-09-07T00:31:54.701Z,99639.60
2022-09-07T00:32:28.004Z,99641.34
2022-09-07T00:33:01.140Z,99638.75
2022-09-07T00:33:34.333Z,99639.70
2022-09-07T00:34:07.630Z,99636.84
2022-09-07T00:34:41.216Z,99638.28
2022-09-07T00:35:14.599Z,99639.58
2022-09-07T00:35:47.865Z,99640.16
2022-09-07T00:36:23.099Z,99639.54
2022-09-07T00:36:56.228Z,99637.77
2022-09-07T00:37:29.537Z,99639.21
2022-09-07T00:38:02.733Z,99639.05
2022-09-07T00:38:36.664Z,99636.76
2022-09-07T00:39:10.005Z,99637.26
2022-09-07T00:39:43.583Z,99635.94
2022-09-07T00:40:16.873Z,99637.67
2022-09-07T00:40:50.261Z,99639.70
2022-09-07T00:41:24.628Z,99637.69
2022-09-07T00:41:57.885Z,99634.28
2022-09-07T00:42:31.066Z,99633.04
2022-09-07T00:43:06.320Z,99631.08
2022-09-07T00:44:19.728Z,99633.79
2022-09-07T00:44:55.736Z,99632.55
2022-09-07T00:45:29.880Z,99630.32
2022-09-07T00:46:05.111Z,99629.48
2022-09-07T00:46:38.419Z,99626.83
2022-09-07T00:47:21.484Z,99629.35
2022-09-07T00:48:03.865Z,99629.88
2022-09-07T00:48:55.695Z,99629.55
2022-09-07T00:49:29.973Z,99630.15
2022-09-07T00:50:09.806Z,99629.01
2022-09-07T00:50:56.844Z,99628.97
2022-09-07T00:51:39.456Z,99629.92
2022-09-07T00:52:14.163Z,99628.17
2022-09-07T00:52:53.163Z,99631.81
2022-09-07T00:53:33.533Z,99627.00
2022-09-07T00:54:12.421Z,99630.95
2022-09-07T00:54:49.630Z,99629.67
2022-09-07T00:55:23.259Z,99632.08
2022-09-07T00:55:58.388Z,99632.46
2022-09-07T00:56:35.698Z,99630.51
2022-09-07T00:57:09.288Z,99634.54
2022-09-07T00:57:48.366Z,99633.09
2022-09-07T00:58:22.969Z,99634.52
2022-09-07T00:58:56.974Z,99634.63
2022-09-07T00:59:37.947Z,99632.79
2022-09-07T01:00:12.001Z,99633.63
2022-09-07T01:00:46.802Z,99630.94
2022-09-07T01:01:20.741Z,99630.86
2022-09-07T01:01:54.226Z,99631.52
2022-09-07T01:02:28.044Z,99629.99
2022-09-07T01:03:03.703Z,99632.28
2022-09-07T01:03:42.491Z,99630.66
2022-09-07T01:04:17.061Z,99632.89
2022-09-07T01:04:54.638Z,99634.34
2022-09-07T01:05:45.680Z,99633.23
2022-09-07T01:06:23.149Z,99629.00
2022-09-07T01:06:57.449Z,99629.89
2022-09-07T01:07:31.141Z,99628.25
2022-09-07T01:08:05.760Z,99627.80
2022-09-07T01:08:39.361Z,99628.09
2022-09-07T01:09:18.770Z,99627.54
2022-09-07T01:09:52.864Z,99628.33
2022-09-07T01:10:31.909Z,99624.50
2022-09-07T01:11:05.443Z,99622.48
2022-09-07T01:11:39.580Z,99623.02
2022-09-07T01:12:13.382Z,99623.24
2022-09-07T01:12:46.692Z,99622.33
2022-09-07T01:13:19.837Z,99626.91
2022-09-07T01:13:54.677Z,99625.95
2022-09-07T01:14:41.805Z,99625.30
2022-09-07T01:15:15.037Z,99626.55
2022-09-07T01:16:12.712Z,99624.92
2022-09-07T01:17:01.627Z,99623.59
2022-09-07T01:18:04.199Z,99624.70
2022-09-07T01:19:01.135Z,99622.83
2022-09-07T01:20:12.085Z,99624.64
2022-09-07T01:21:26.288Z,99623.97
2022-09-07T01:22:36.777Z,99621.06
2022-09-07T01:23:33.276Z,99622.84
2022-09-07T01:24:28.528Z,99622.56
2022-09-07T01:25:22.224Z,99625.20
2022-09-07T01:26:30.492Z,99622.43
2022-09-07T01:27:35.365Z,99622.71
2022-09-07T01:28:25.922Z,99620.56
2022-09-07T01:29:08.655Z,99619.20
2022-09-07T01:30:08.674Z,99619.63
2022-09-07T01:30:51.967Z,99619.99
2022-09-07T01:31:45.825Z,99618.61
2022-09-07T01:32:51.024Z,99618.64
2022-09-07T01:34:05.425Z,99618.84
2022-09-07T01:34:39.569Z,99614.02
2022-09-07T01:35:29.566Z,99615.21
2022-09-07T01:36:21.338Z,99611.67
2022-09-07T01:37:13.236Z,99612.42
2022-09-07T01:38:21.451Z,99612.61
2022-09-07T01:38:59.355Z,99614.53
2022-09-07T01:39:47.367Z,99608.23
2022-09-07T01:40:41.376Z,99608.36
2022-09-07T01:41:20.260Z,99607.61
2022-09-07T01:42:01.735Z,99608.67
2022-09-07T01:42:45.381Z,99609.04
2022-09-07T01:43:45.666Z,99611.95
2022-09-07T01:44:27.471Z,99610.09
2022-09-07T01:45:03.612Z,99611.84
2022-09-07T01:45:41.183Z,99604.65
2022-09-07T01:46:23.129Z,99604.36
2022-09-07T01:47:07.928Z,99603.98
2022-09-07T01:47:48.616Z,99602.31
2022-09-07T01:48:23.626Z,99602.27
2022-09-07T01:49:05.057Z,99600.64
2022-09-07T01:49:40.960Z,99600.17
2022-09-07T01:50:38.054Z,99597.59
2022-09-07T01:51:13.573Z,99599.49
2022-09-07T01:51:50.353Z,99598.58
2022-09-07T01:52:35.163Z,99598.21
2022-09-07T01:53:22.220Z,99602.58
2022-09-07T01:54:01.447Z,99600.93
2022-09-07T01:54:55.492Z,99602.01
2022-09-07T01:55:40.835Z,99598.24
2022-09-07T01:56:42.887Z,99597.48
2022-09-07T01:57:22.931Z,99593.20
2022-09-07T01:58:09.150Z,99596.66
2022-09-07T01:58:49.912Z,99589.84
2022-09-07T01:59:28.978Z,99590.73
2022-09-07T02:00:14.754Z,99588.54
2022-09-07T02:00:55.407Z,99586.31
2022-09-07T02:01:40.575Z,99587.79
2022-09-07T02:02:19.941Z,99585.77
2022-09-07T02:03:00.354Z,99587.42
2022-09-07T02:03:45.262Z,99583.92
2022-09-07T02:04:28.121Z,99583.51
2022-09-07T02:05:10.202Z,99581.05
2022-09-07T02:05:58.816Z,99584.02
2022-09-07T02:06:38.204Z,99584.99
2022-09-07T02:07:25.684Z,99587.54
2022-09-07T02:08:05.243Z,99588.48
2022-09-07T02:08:46.285Z,99588.84
2022-09-07T02:09:38.262Z,99586.05
2022-09-07T02:10:17.281Z,99585.29
2022-09-07T02:11:02.619Z,99582.73
2022-09-07T02:11:45.523Z,99584.00
2022-09-07T02:12:35.498Z,99584.09
2022-09-07T02:13:40.745Z,99582.94
2022-09-07T02:14:30.857Z,99581.77
2022-09-07T02:15:20.685Z,99583.99
2022-09-07T02:16:00.304Z,99583.27
2022-09-07T02:16:37.403Z,99581.83
2022-09-07T02:17:34.507Z,99583.75
2022-09-07T02:18:10.474Z,99581.86
2022-09-07T02:18:50.302Z,99578.98
2022-09-07T02:19:27.309Z,99578.76
2022-09-07T02:20:15.642Z,99577.85
2022-09-07T02:20:53.851Z,99575.36
2022-09-07T02:21:34.546Z,99577.13
2022-09-07T02:22:14.239Z,99574.02
2022-09-07T02:22:53.073Z,99572.02
2022-09-07T02:23:31.703Z,99571.09
2022-09-07T02:24:11.428Z,99569.52
2022-09-07T02:24:51.207Z,99565.28
2022-09-07T02:25:33.286Z,99565.41
2022-09-07T02:26:14.373Z,99563.26
2022-09-07T02:26:53.443Z,99564.06
2022-09-07T02:27:39.622Z,99561.02
2022-09-07T02:28:22.408Z,99563.11
2022-09-07T02:28:56.369Z,99557.45
2022-09-07T02:29:31.103Z,99562.05
2022-09-07T02:30:06.716Z,99559.74
2022-09-07T02:30:40.689Z,99558.25
2022-09-07T02:31:15.103Z,99556.88
2022-09-07T02:31:49.687Z,99558.69
2022-09-07T02:32:23.042Z,99557.50
2022-09-07T02:32:56.656Z,99556.23
2022-09-07T02:33:30.532Z,99558.35
2022-09-07T02:34:04.312Z,99556.01
2022-09-07T02:34:37.676Z,99554.67
2022-09-07T02:35:11.189Z,99554.88
2022-09-07T02:35:44.750Z,99554.83
2022-09-07T02:36:20.431Z,99555.45
2022-09-07T02:36:54.733Z,99558.35
2022-09-07T02:37:29.095Z,99557.08
2022-09-07T02:38:04.748Z,99558.72
2022-09-07T02:38:38.227Z,99557.32
2022-09-07T02:39:11.406Z,99558.39
2022-09-07T02:39:44.913Z,99554.14
2022-09-07T02:40:18.681Z,99559.27
2022-09-07T02:40:53.738Z,99558.23
2022-09-07T02:41:30.999Z,99559.25
2022-09-07T02:42:04.476Z,99554.69
2022-09-07T02:42:39.249Z,99554.24
2022-09-07T02:43:12.480Z,99552.83
2022-09-07T02:43:46.073Z,99549.48
2022-09-07T02:44:28.500Z,99548.31
2022-09-07T02:45:05.350Z,99546.31
2022-09-07T02:46:19.217Z,99544.95
2022-09-07T02:47:07.554Z,99542.96
2022-09-07T02:47:50.257Z,99546.23
2022-09-07T02:48:47.556Z,99544.88
2022-09-07T02:49:29.486Z,99544.42
2022-09-07T02:50:34.779Z,99544.58
2022-09-07T02:51:18.612Z,99544.33
2022-09-07T02:52:13.656Z,99543.89
2022-09-07T02:52:58.735Z,99545.54
2022-09-07T02:53:48.133Z,99542.04
2022-09-07T02:54:40.062Z,99541.02
2022-09-07T02:55:39.838Z,99540.67
2022-09-07T02:56:18.725Z,99541.75
2022-09-07T02:57:19.654Z,99540.98
2022-09-07T02:58:14.086Z,99540.32
2022-09-07T02:59:07.943Z,99542.46
2022-09-07T02:59:59.841Z,99541.36
2022-09-07T03:00:38.869Z,99544.45
2022-09-07T03:01:47.341Z,99543.73
2022-09-07T03:02:30.622Z,99544.84
2022-09-07T03:03:22.725Z,99544.45
2022-09-07T03:04:14.092Z,99542.64
2022-09-07T03:05:06.361Z,99542.49
2022-09-07T03:05:51.105Z,99538.72
2022-09-07T03:06:41.039Z,99536.69
2022-09-07T03:07:22.907Z,99535.60
2022-09-07T03:08:18.527Z,99530.83
2022-09-07T03:08:55.041Z,99532.11
2022-09-07T03:09:32.849Z,99531.31
2022-09-07T03:10:07.552Z,99532.66
2022-09-07T03:10:41.765Z,99528.89
2022-09-07T03:11:15.665Z,99533.27
2022-09-07T03:11:49.791Z,99534.70
2022-09-07T03:12:23.161Z,99534.71
2022-09-07T03:12:56.215Z,99530.64
2022-09-07T03:13:30.278Z,99532.36
2022-09-07T03:14:18.742Z,99531.74
2022-09-07T03:14:51.957Z,99532.89
2022-09-07T03:15:27.331Z,99529.27
2022-09-07T03:16:00.812Z,99532.88
2022-09-07T03:16:34.037Z,99530.75
2022-09-07T03:17:08.379Z,99533.13
2022-09-07T03:17:42.764Z,99530.68
2022-09-07T03:18:15.861Z,99525.95
2022-09-07T03:18:49.358Z,99528.41
2022-09-07T03:19:22.415Z,99522.66
2022-09-07T03:19:55.758Z,99521.96
2022-09-07T03:20:28.910Z,99520.99
2022-09-07T03:21:01.979Z,99516.88
2022-09-07T03:21:36.165Z,99521.45
2022-09-07T03:22:09.412Z,99512.86
2022-09-07T03:22:42.593Z,99517.44
2022-09-07T03:23:15.813Z,99515.93
2022-09-07T03:23:51.836Z,99510.73
2022-09-07T03:24:25.347Z,99513.87
2022-09-07T03:24:58.515Z,99513.43
2022-09-07T03:25:31.630Z,99512.81
2022-09-07T03:26:05.601Z,99512.61
2022-09-07T03:26:42.039Z,99508.70
2022-09-07T03:27:15.221Z,99510.17
2022-09-07T03:27:48.527Z,99510.94
2022-09-07T03:28:21.726Z,99510.79
2022-09-07T03:28:54.815Z,99514.45
2022-09-07T03:29:27.985Z,99514.38
2022-09-07T03:30:01.418Z,99514.15
2022-09-07T03:30:34.697Z,99517.19
2022-09-07T03:31:07.938Z,99516.92
2022-09-07T03:31:41.292Z,99515.75
2022-09-07T03:32:14.402Z,99521.11
2022-09-07T03:32:47.955Z,99517.90
2022-09-07T03:33:21.181Z,99519.52
2022-09-07T03:33:55.505Z,99517.66
2022-09-07T03:34:28.876Z,99517.80
2022-09-07T03:35:03.123Z,99516.63
2022-09-07T03:35:36.523Z,99516.95
2022-09-07T03:36:09.717Z,99516.21
2022-09-07T03:36:43.340Z,99515.77
2022-09-07T03:37:16.531Z,99515.70
2022-09-07T03:37:49.692Z,99517.91
2022-09-07T03:38:22.971Z,99515.13
2022-09-07T03:38:56.264Z,99516.10
2022-09-07T03:39:29.562Z,99516.13
2022-09-07T03:40:04.918Z,99517.37
2022-09-07T03:40:38.403Z,99514.26
2022-09-07T03:41:12.405Z,99513.38
2022-09-07T03:41:45.619Z,99516.10
2022-09-07T03:42:19.482Z,99512.90
2022-09-07T03:42:52.589Z,99514.99
2022-09-07T03:43:26.414Z,99515.29
2022-09-07T03:44:05.952Z,99511.35
2022-09-07T03:44:39.227Z,99514.33
2022-09-07T03:45:12.409Z,99512.15
2022-09-07T03:45:45.778Z,99510.38
2022-09-07T03:46:19.902Z,99508.97
2022-09-07T03:46:53.374Z,99509.08
2022-09-07T03:47:26.524Z,99508.54
2022-09-07T03:47:59.722Z,99508.66
2022-09-07T03:48:35.107Z,99508.15
2022-09-07T03:49:08.275Z,99508.85
2022-09-07T03:49:41.605Z,99505.95
2022-09-07T03:50:14.905Z,99507.68
2022-09-07T03:51:02.609Z,99506.58
2022-09-07T03:51:35.723Z,99502.66
2022-09-07T03:52:09.267Z,99503.61
2022-09-07T03:52:42.592Z,99504.53
2022-09-07T03:53:15.690Z,99505.54
2022-09-07T03:53:48.981Z,99503.67
2022-09-07T03:54:23.004Z,99506.29
2022-09-07T03:54:56.267Z,99503.61
2022-09-07T03:55:29.351Z,99504.15
2022-09-07T03:56:05.246Z,99504.21
2022-09-07T03:56:38.873Z,99508.00
2022-09-07T03:57:12.357Z,99506.08
2022-09-07T03:57:45.564Z,99507.05
2022-09-07T03:58:18.756Z,99504.19
2022-09-07T03:58:53.907Z,99508.41
2022-09-07T03:59:27.393Z,99506.64
2022-09-07T04:00:00.697Z,99507.84
2022-09-07T04:00:34.196Z,99507.23
2022-09-07T04:01:10.493Z,99509.06
2022-09-07T04:01:43.686Z,99507.73
2022-09-07T04:02:17.470Z,99511.11
2022-09-07T04:02:50.851Z,99510.47
2022-09-07T04:03:24.356Z,99510.96
2022-09-07T04:04:02.151Z,99507.36
2022-09-07T04:04:35.596Z,99507.55
2022-09-07T04:05:09.257Z,99506.98
2022-09-07T04:05:42.699Z,99501.96
2022-09-07T04:06:16.850Z,99500.67
2022-09-07T04:06:50.693Z,99499.63
2022-09-07T04:07:24.028Z,99500.19
2022-09-07T04:07:57.244Z,99495.26
2022-09-07T04:08:33.312Z,99496.54
2022-09-07T04:09:08.920Z,99497.08
2022-09-07T04:09:42.353Z,99498.59
2022-09-07T04:10:15.570Z,99501.58
2022-09-07T04:10:48.600Z,99497.48
2022-09-07T04:11:21.707Z,99497.39
2022-09-07T04:11:55.006Z,99497.11
2022-09-07T04:12:28.467Z,99501.65
2022-09-07T04:13:01.665Z,99504.63
2022-09-07T04:13:36.472Z,99500.15
2022-09-07T04:14:11.744Z,99501.23
2022-09-07T04:14:45.124Z,99503.73
2022-09-07T04:15:18.845Z,99503.71
2022-09-07T04:15:53.975Z,99504.80
2022-09-07T04:16:28.782Z,99506.16
2022-09-07T04:17:02.309Z,99505.50
2022-09-07T04:17:35.809Z,99507.86
2022-09-07T04:18:08.947Z,99506.05
2022-09-07T04:18:42.169Z,99505.83
2022-09-07T04:19:15.302Z,99507.04
2022-09-07T04:19:48.585Z,99510.17
2022-09-07T04:20:21.770Z,99507.73
2022-09-07T04:20:59.087Z,99508.09
2022-09-07T04:21:33.640Z,99509.04
2022-09-07T04:22:06.885Z,99511.73
2022-09-07T04:22:40.313Z,99511.44
2022-09-07T04:23:13.760Z,99511.55
2022-09-07T04:23:46.961Z,99515.80
2022-09-07T04:24:20.200Z,99515.91
2022-09-07T04:24:53.719Z,99517.45
2022-09-07T04:25:27.244Z,99519.81
2022-09-07T04:26:00.630Z,99524.80
2022-09-07T04:26:36.625Z,99526.17
2022-09-07T04:27:09.905Z,99529.64
2022-09-07T04:27:43.361Z,99529.96
2022-09-07T04:28:18.097Z,99531.36
2022-09-07T04:28:51.629Z,99532.61
2022-09-07T04:29:24.856Z,99532.31
2022-09-07T04:29:58.115Z,99531.14
2022-09-07T04:30:35.439Z,99533.33
2022-09-07T04:31:08.996Z,99531.25
2022-09-07T04:31:42.306Z,99533.00
2022-09-07T04:32:16.081Z,99532.78
2022-09-07T04:32:49.665Z,99533.44
2022-09-07T04:33:23.232Z,99533.11
2022-09-07T04:33:57.061Z,99534.68
2022-09-07T04:34:30.358Z,99536.11
2022-09-07T04:35:04.542Z,99533.21
2022-09-07T04:35:39.401Z,99532.34
2022-09-07T04:36:12.984Z,99532.52
2022-09-07T04:36:46.498Z,99532.52
2022-09-07T04:37:19.820Z,99534.80
2022-09-07T04:37:52.836Z,99532.98
2022-09-07T04:38:26.001Z,99534.67
2022-09-07T04:39:01.599Z,99536.59
2022-09-07T04:39:35.721Z,99534.64
2022-09-07T04:40:09.600Z,99536.36
2022-09-07T04:40:44.188Z,99537.05
2022-09-07T04:41:18.962Z,99534.92
2022-09-07T04:41:52.125Z,99535.88
2022-09-07T04:42:25.380Z,99535.28
2022-09-07T04:42:59.271Z,99536.70
2022-09-07T04:43:33.042Z,99537.63
2022-09-07T04:44:06.334Z,99534.25
2022-09-07T04:44:39.429Z,99534.11
2022-09-07T04:45:12.650Z,99536.71
2022-09-07T04:45:45.846Z,99533.66
2022-09-07T04:46:27.677Z,99536.58
2022-09-07T04:47:01.019Z,99533.62
2022-09-07T04:47:34.082Z,99531.19
2022-09-07T04:48:07.605Z,99530.65
2022-09-07T04:48:40.965Z,99529.63
2022-09-07T04:49:14.338Z,99527.67
2022-09-07T04:49:53.706Z,99526.14
2022-09-07T04:50:26.932Z,99526.15
2022-09-07T04:51:11.149Z,99524.49
2022-09-07T04:51:44.692Z,99522.30
2022-09-07T04:52:17.990Z,99520.64
2022-09-07T04:52:51.163Z,99521.51
2022-09-07T04:53:24.404Z,99519.59
2022-09-07T04:53:59.888Z,99514.73
2022-09-07T04:54:33.149Z,99517.02
2022-09-07T04:55:07.107Z,99516.59
2022-09-07T04:55:40.470Z,99515.92
2022-09-07T04:56:16.953Z,99514.45
2022-09-07T04:56:50.517Z,99515.13
2022-09-07T04:57:26.171Z,99516.91
2022-09-07T04:57:59.430Z,99515.45
2022-09-07T04:58:32.694Z,99514.52
2022-09-07T04:59:06.047Z,99515.20
2022-09-07T04:59:39.181Z,99515.73
2022-09-07T05:00:12.822Z,99512.38
2022-09-07T05:00:46.223Z,99514.30
2022-09-07T05:01:23.410Z,99516.64
2022-09-07T05:01:56.556Z,99515.21
2022-09-07T05:02:29.711Z,99514.94
2022-09-07T05:03:02.938Z,99513.23
2022-09-07T05:03:38.430Z,99518.19
2022-09-07T05:04:11.617Z,99516.33
2022-09-07T05:04:44.670Z,99518.48
2022-09-07T05:05:17.918Z,99519.48
2022-09-07T05:05:51.039Z,99517.04
2022-09-07T05:06:24.373Z,99519.30
2022-09-07T05:06:57.453Z,99520.23
2022-09-07T05:07:30.792Z,99520.48
2022-09-07T05:08:04.627Z,99523.31
2022-09-07T05:08:41.771Z,99521.25
2022-09-07T05:09:14.973Z,99524.08
2022-09-07T05:09:48.549Z,99524.49
2022-09-07T05:10:21.741Z,99526.70
2022-09-07T05:10:56.112Z,99526.45
2022-09-07T05:11:30.107Z,99527.92
2022-09-07T05:12:03.801Z,99528.54
2022-09-07T05:12:37.095Z,99529.23
2022-09-07T05:13:10.174Z,99529.33
2022-09-07T05:13:43.557Z,99531.20
2022-09-07T05:14:16.858Z,99530.24
2022-09-07T05:14:50.487Z,99529.73
2022-09-07T05:15:23.759Z,99528.73
2022-09-07T05:15:57.094Z,99529.05
2022-09-07T05:16:31.758Z,99530.31
2022-09-07T05:17:05.268Z,99528.77
2022-09-07T05:17:38.420Z,99525.98
2022-09-07T05:18:13.293Z,99532.83
2022-09-07T05:18:54.452Z,99531.53
2022-09-07T05:19:28.262Z,99533.08
2022-09-07T05:20:01.598Z,99532.15
2022-09-07T05:20:34.888Z,99532.45
2022-09-07T05:21:17.135Z,99532.52
2022-09-07T05:21:50.251Z,99532.52
2022-09-07T05:22:25.495Z,99534.63
2022-09-07T05:23:01.647Z,99531.52
2022-09-07T05:23:34.956Z,99532.91
2022-09-07T05:24:08.304Z,99532.70
2022-09-07T05:24:41.536Z,99529.63
2022-09-07T05:25:15.419Z,99528.20
2022-09-07T05:25:49.400Z,99530.65
2022-09-07T05:26:25.029Z,99530.55
2022-09-07T05:26:59.900Z,99533.02
2022-09-07T05:27:33.087Z,99531.31
2022-09-07T05:28:06.196Z,99528.56
2022-09-07T05:28:39.492Z,99528.63
2022-09-07T05:30:06.995Z,99525.08
2022-09-07T05:31:34.547Z,99522.96
2022-09-07T05:32:07.994Z,99521.73
2022-09-07T05:32:45.507Z,99520.62
2022-09-07T05:33:18.649Z,99520.11
2022-09-07T05:34:49.667Z,99520.42
2022-09-07T05:35:24.461Z,99519.02
2022-09-07T05:35:59.849Z,99519.67
2022-09-07T05:36:35.948Z,99522.85
2022-09-07T05:37:10.780Z,99521.41
2022-09-07T05:37:43.936Z,99520.52
2022-09-07T05:38:17.189Z,99520.13
2022-09-07T05:38:50.339Z,99523.58
2022-09-07T05:39:24.302Z,99520.95
2022-09-07T05:39:57.598Z,99521.34
2022-09-07T05:40:35.126Z,99523.88
2022-09-07T05:41:15.803Z,99523.98
2022-09-07T05:41:48.973Z,99527.35
2022-09-07T05:42:22.582Z,99526.54
2022-09-07T05:42:55.959Z,99527.62
2022-09-07T05:43:31.273Z,99527.72
2022-09-07T05:44:59.927Z,99525.73
2022-09-07T05:45:33.250Z,99528.05
2022-09-07T05:46:06.853Z,99522.98
2022-09-07T05:46:40.505Z,99525.05
2022-09-07T05:47:14.179Z,99523.95
2022-09-07T05:47:50.950Z,99528.98
2022-09-07T05:48:24.224Z,99527.18
2022-09-07T05:48:57.491Z,99524.15
2022-09-07T05:49:30.950Z,99527.36
2022-09-07T05:50:06.159Z,99526.67
2022-09-07T05:50:39.251Z,99526.73
2022-09-07T05:51:13.741Z,99526.62
2022-09-07T05:51:47.296Z,99527.56
2022-09-07T05:52:20.978Z,99526.87
2022-09-07T05:52:54.212Z,99526.66
2022-09-07T05:53:27.956Z,99524.80
2022-09-07T05:54:01.406Z,99525.77
2022-09-07T05:54:35.158Z,99523.75
2022-09-07T05:55:28.898Z,99524.97
2022-09-07T05:56:07.043Z,99520.50
2022-09-07T05:56:40.524Z,99520.19
2022-09-07T05:57:14.247Z,99518.14
2022-09-07T05:57:47.326Z,99516.23
2022-09-07T05:58:20.615Z,99517.17
2022-09-07T05:58:53.767Z,99518.59
2022-09-07T05:59:26.817Z,99519.88
2022-09-07T06:00:00.038Z,99520.07
2022-09-07T06:00:34.162Z,99518.16
2022-09-07T06:01:13.223Z,99522.30
2022-09-07T06:01:46.916Z,99518.39
2022-09-07T06:02:20.593Z,99518.52
2022-09-07T06:02:53.995Z,99518.31
2022-09-07T06:03:27.399Z,99518.92
2022-09-07T06:04:00.796Z,99519.61
2022-09-07T06:04:34.161Z,99517.63
2022-09-07T06:05:08.746Z,99516.49
2022-09-07T06:05:41.895Z,99516.45
2022-09-07T06:06:19.235Z,99513.17
2022-09-07T06:07:20.114Z,99513.01
2022-09-07T06:07:48.813Z,99509.70
2022-09-07T06:08:22.075Z,99509.36
2022-09-07T06:08:55.322Z,99510.30
2022-09-07T06:09:30.488Z,99507.59
2022-09-07T06:10:57.863Z,99510.16
2022-09-07T06:11:31.117Z,99507.83
2022-09-07T06:12:05.793Z,99511.30
2022-09-07T06:12:39.148Z,99512.48
2022-09-07T06:13:12.382Z,99511.05
2022-09-07T06:13:45.959Z,99512.27
2022-09-07T06:14:19.154Z,99509.16
2022-09-07T06:14:52.397Z,99512.08
2022-09-07T06:15:25.474Z,99511.77
2022-09-07T06:16:02.627Z,99512.66
2022-09-07T06:16:35.915Z,99511.66
2022-09-07T06:17:09.159Z,99512.96
2022-09-07T06:17:42.434Z,99511.52
2022-09-07T06:18:15.617Z,99513.08
2022-09-07T06:18:50.456Z,99510.90
2022-09-07T06:19:23.717Z,99509.69
2022-09-07T06:19:57.564Z,99511.94
2022-09-07T06:20:31.497Z,99511.20
2022-09-07T06:21:19.097Z,99513.06
2022-09-07T06:21:52.428Z,99511.66
2022-09-07T06:22:30.128Z,99516.23
2022-09-07T06:23:04.035Z,99515.67
2022-09-07T06:23:39.422Z,99518.22
2022-09-07T06:24:12.599Z,99517.91
2022-09-07T06:24:45.747Z,99520.09
2022-09-07T06:25:19.217Z,99518.88
2022-09-07T06:25:52.562Z,99519.93
2022-09-07T06:26:25.716Z,99523.91
2022-09-07T06:26:59.168Z,99524.92
2022-09-07T06:27:32.255Z,99521.77
2022-09-07T06:28:05.383Z,99523.59
2022-09-07T06:28:41.536Z,99520.93
2022-09-07T06:29:15.050Z,99524.43
2022-09-07T06:29:48.236Z,99526.30
2022-09-07T06:30:21.628Z,99524.11
2022-09-07T06:30:59.652Z,99523.94
2022-09-07T06:31:33.242Z,99526.13
2022-09-07T06:32:59.698Z,99524.11
2022-09-07T06:33:33.067Z,99524.80
2022-09-07T06:34:06.429Z,99525.71
2022-09-07T06:34:39.569Z,99522.70
2022-09-07T06:35:13.511Z,99523.15
2022-09-07T06:36:02.320Z,99522.81
2022-09-07T06:36:35.450Z,99525.61
2022-09-07T06:37:08.650Z,99524.66
2022-09-07T06:37:42.751Z,99526.77
2022-09-07T06:38:16.127Z,99524.38
2022-09-07T06:38:50.568Z,99523.10
2022-09-07T06:39:23.791Z,99526.17
2022-09-07T06:39:57.161Z,99525.81
2022-09-07T06:40:30.367Z,99524.73
2022-09-07T06:41:59.656Z,99524.85
2022-09-07T06:42:32.997Z,99524.44
2022-09-07T06:43:06.223Z,99523.44
2022-09-07T06:43:44.125Z,99524.55
2022-09-07T06:44:19.590Z,99522.25
2022-09-07T06:44:53.336Z,99522.91
2022-09-07T06:45:28.688Z,99522.67
2022-09-07T06:47:04.882Z,99521.36
2022-09-07T06:47:39.235Z,99523.66
2022-09-07T06:48:12.634Z,99520.48
2022-09-07T06:48:45.807Z,99523.01
2022-09-07T06:49:19.066Z,99523.05
2022-09-07T06:49:52.247Z,99526.02
2022-09-07T06:50:28.116Z,99526.33
2022-09-07T06:51:01.977Z,99527.77
2022-09-07T06:51:35.675Z,99527.05
2022-09-07T06:52:08.961Z,99525.80
2022-09-07T06:53:39.511Z,99525.31
2022-09-07T06:55:08.986Z,99528.13
2022-09-07T06:55:45.586Z,99525.98
2022-09-07T06:56:19.746Z,99525.98
2022-09-07T06:56:52.912Z,99526.08
2022-09-07T06:57:27.469Z,99527.69
2022-09-07T06:58:00.762Z,99526.64
2022-09-07T06:58:37.011Z,99528.83
2022-09-07T06:59:12.579Z,99529.20
2022-09-07T06:59:45.809Z,99528.45
2022-09-07T07:00:19.177Z,99526.52
2022-09-07T07:00:53.006Z,99525.60
2022-09-07T07:01:27.237Z,99528.75
2022-09-07T07:02:00.648Z,99528.96
2022-09-07T07:02:34.122Z,99528.71
2022-09-07T07:03:07.264Z,99528.22
2022-09-07T07:03:41.044Z,99529.59
2022-09-07T07:04:14.500Z,99529.23
2022-09-07T07:04:47.685Z,99533.43
2022-09-07T07:05:21.118Z,99535.48
2022-09-07T07:05:57.334Z,99531.86
2022-09-07T07:06:35.310Z,99534.41
2022-09-07T07:07:14.537Z,99537.18
2022-09-07T07:07:47.770Z,99539.78
2022-09-07T07:08:23.097Z,99536.21
2022-09-07T07:08:56.261Z,99538.05
2022-09-07T07:09:29.561Z,99538.44
2022-09-07T07:10:02.794Z,99539.98
2022-09-07T07:10:39.593Z,99541.67
2022-09-07T07:11:16.242Z,99539.98
2022-09-07T07:11:49.614Z,99541.09
2022-09-07T07:12:58.582Z,99539.00
2022-09-07T07:13:32.284Z,99539.79
2022-09-07T07:14:05.777Z,99538.67
2022-09-07T07:14:44.016Z,99538.33
2022-09-07T07:15:18.296Z,99541.86
2022-09-07T07:15:54.048Z,99543.31
2022-09-07T07:16:27.566Z,99543.04
2022-09-07T07:17:00.711Z,99537.64
2022-09-07T07:17:33.927Z,99538.86
2022-09-07T07:18:20.367Z,99537.77
2022-09-07T07:18:58.317Z,99533.27
2022-09-07T07:19:31.533Z,99536.00
2022-09-07T07:20:05.403Z,99536.72
2022-09-07T07:20:40.286Z,99532.01
2022-09-07T07:21:15.750Z,99533.46
2022-09-07T07:22:10.714Z,99532.95
2022-09-07T07:22:46.718Z,99533.93
2022-09-07T07:23:20.661Z,99529.46
2022-09-07T07:23:54.244Z,99534.80
2022-09-07T07:24:27.308Z,99534.96